createdAt,value
2018-06-18T00:02:07.815Z,100825.25
2018-06-18T00:04:36.480Z,100825.43
2018-06-18T00:07:05.185Z,100810.02
2018-06-18T00:09:34.034Z,100806.02
2018-06-18T00:12:02.666Z,100801.55
2018-06-18T00:14:31.636Z,100792.03
2018-06-18T00:17:00.235Z,100785.80
2018-06-18T00:19:29.100Z,100778.24
2018-06-18T00:21:57.877Z,100773.76
2018-06-18T00:24:26.666Z,100764.44
2018-06-18T00:26:55.352Z,100757.37
2018-06-18T00:29:24.157Z,100747.92
2018-06-18T00:31:53.006Z,100742.59
2018-06-18T00:34:21.695Z,100739.00
2018-06-18T00:36:50.517Z,100730.13
2018-06-18T00:39:19.099Z,100713.09
2018-06-18T00:41:47.853Z,100724.48
2018-06-18T00:44:16.567Z,100716.50
2018-06-18T00:46:45.146Z,100321.21
2018-06-18T00:49:14.184Z,100703.55
2018-06-18T00:51:42.917Z,100689.76
2018-06-18T00:54:11.835Z,100685.57
2018-06-18T00:56:40.625Z,100675.12
2018-06-18T00:59:09.561Z,100674.77
2018-06-18T01:01:38.524Z,100686.96
2018-06-18T01:04:07.227Z,100679.62
2018-06-18T01:06:35.890Z,100692.22
2018-06-18T01:09:06.920Z,100707.64
2018-06-18T01:11:35.579Z,100688.58
2018-06-18T01:14:04.184Z,100666.30
2018-06-18T01:16:33.054Z,100659.91
2018-06-18T01:19:01.805Z,100645.50
2018-06-18T01:21:31.040Z,100642.70
2018-06-18T01:24:11.189Z,100650.47
2018-06-18T01:26:39.886Z,100639.55
2018-06-18T01:29:08.919Z,100646.06
2018-06-18T01:31:37.708Z,100649.21
2018-06-18T01:34:10.266Z,100654.05
2018-06-18T01:36:39.001Z,100658.94
2018-06-18T01:39:08.658Z,100646.76
2018-06-18T01:41:37.326Z,100638.55
2018-06-18T01:44:06.093Z,100652.91
2018-06-18T01:46:34.729Z,100656.61
2018-06-18T01:49:03.546Z,100662.77
2018-06-18T01:51:32.186Z,100655.86
2018-06-18T01:54:00.956Z,100677.21
2018-06-18T01:56:29.538Z,100684.24
2018-06-18T01:58:58.436Z,100692.22
2018-06-18T02:01:27.197Z,100676.20
2018-06-18T02:03:56.729Z,100660.02
2018-06-18T02:06:25.336Z,100647.73
2018-06-18T02:08:54.046Z,100660.23
2018-06-18T02:11:22.988Z,100652.38
2018-06-18T02:13:51.938Z,100643.42
2018-06-18T02:16:20.622Z,100645.34
2018-06-18T02:18:49.512Z,100632.73
2018-06-18T02:21:18.297Z,100633.77
2018-06-18T02:23:47.013Z,100636.48
2018-06-18T02:26:15.786Z,100643.20
2018-06-18T02:28:49.994Z,100626.22
2018-06-18T02:31:24.035Z,100627.78
2018-06-18T02:34:56.770Z,100625.55
2018-06-18T02:37:30.693Z,100620.85
2018-06-18T02:40:04.787Z,100616.33
2018-06-18T02:42:33.635Z,100611.25
2018-06-18T02:45:02.528Z,100597.42
2018-06-18T02:47:31.316Z,100590.83
2018-06-18T02:50:00.109Z,100587.25
2018-06-18T02:52:28.830Z,100579.81
2018-06-18T02:54:57.694Z,100588.88
2018-06-18T02:57:26.834Z,100603.41
2018-06-18T02:59:55.850Z,100591.53
2018-06-18T03:02:24.779Z,100589.97
2018-06-18T03:04:53.665Z,100602.55
2018-06-18T03:07:22.567Z,100606.98
2018-06-18T03:09:51.356Z,100611.80
2018-06-18T03:12:20.127Z,100617.95
2018-06-18T03:14:48.992Z,100598.14
2018-06-18T03:17:17.629Z,100590.85
2018-06-18T03:19:51.749Z,100580.23
2018-06-18T03:22:25.917Z,100575.70
2018-06-18T03:24:59.993Z,100573.41
2018-06-18T03:27:34.177Z,100579.80
2018-06-18T03:30:02.825Z,100568.58
2018-06-18T03:32:31.729Z,100555.67
2018-06-18T03:35:00.883Z,100539.13
2018-06-18T03:37:29.671Z,100539.62
2018-06-18T03:39:58.509Z,100526.23
2018-06-18T03:42:27.246Z,100525.27
2018-06-18T03:45:37.870Z,100522.97
2018-06-18T03:48:08.934Z,100516.27
2018-06-18T03:50:37.662Z,100519.04
2018-06-18T03:53:06.595Z,100517.60
2018-06-18T03:56:08.179Z,100511.97
2018-06-18T03:58:36.865Z,100503.36
2018-06-18T04:01:22.000Z,100501.78
2018-06-18T04:03:56.272Z,100504.50
2018-06-18T04:06:30.367Z,100489.24
2018-06-18T04:09:04.157Z,100480.98
2018-06-18T04:11:37.832Z,100471.21
2018-06-18T04:14:06.488Z,100468.25
2018-06-18T04:16:35.527Z,100453.71
2018-06-18T04:19:04.255Z,100452.26
2018-06-18T04:21:32.956Z,100450.38
2018-06-18T04:24:01.729Z,100455.20
2018-06-18T04:26:30.373Z,100454.48
2018-06-18T04:28:59.317Z,100458.34
2018-06-18T04:31:28.012Z,100461.44
2018-06-18T04:34:07.841Z,100449.79
2018-06-18T04:36:36.552Z,100453.70
2018-06-18T04:39:07.468Z,100457.87
2018-06-18T04:41:40.561Z,100461.31
2018-06-18T04:44:14.469Z,100454.20
2018-06-18T04:46:48.575Z,100459.27
2018-06-18T04:49:22.509Z,100461.49
2018-06-18T04:51:51.602Z,100459.09
2018-06-18T04:54:20.586Z,100455.72
2018-06-18T04:56:49.272Z,100448.34
2018-06-18T04:59:18.070Z,100448.77
2018-06-18T05:01:47.089Z,100431.14
2018-06-18T05:04:15.827Z,100415.23
2018-06-18T05:06:44.710Z,100401.28
2018-06-18T05:09:34.033Z,100389.72
2018-06-18T05:12:02.886Z,100405.45
2018-06-18T05:14:31.805Z,100408.23
2018-06-18T05:17:00.977Z,100415.60
2018-06-18T05:19:29.716Z,100397.63
2018-06-18T05:21:58.613Z,100396.67
2018-06-18T05:24:27.574Z,100391.16
2018-06-18T05:26:57.401Z,100373.50
2018-06-18T05:29:27.207Z,100363.40
2018-06-18T05:31:56.204Z,100340.58
2018-06-18T05:34:27.594Z,100300.95
2018-06-18T05:36:58.741Z,100337.44
2018-06-18T05:39:27.480Z,100356.77
2018-06-18T05:41:56.532Z,100350.74
2018-06-18T05:44:25.422Z,100348.87
2018-06-18T05:46:54.105Z,100362.30
2018-06-18T05:49:22.763Z,100356.98
2018-06-18T05:51:51.532Z,100365.99
2018-06-18T05:54:20.117Z,100357.19
2018-06-18T05:56:48.708Z,100338.47
2018-06-18T05:59:17.594Z,100320.50
2018-06-18T06:01:46.346Z,100337.44
2018-06-18T06:04:15.177Z,100338.85
2018-06-18T06:06:44.171Z,100331.30
2018-06-18T06:09:13.685Z,100305.09
2018-06-18T06:11:42.464Z,100305.72
2018-06-18T06:14:11.322Z,100303.98
2018-06-18T06:16:40.277Z,100310.14
2018-06-18T06:19:09.018Z,100294.34
2018-06-18T06:21:38.254Z,100294.12
2018-06-18T06:24:07.224Z,100274.47
2018-06-18T06:26:36.227Z,100273.09
2018-06-18T06:29:04.948Z,100235.19
2018-06-18T06:31:33.808Z,100271.76
2018-06-18T06:34:02.467Z,100261.54
2018-06-18T06:36:31.212Z,100253.70
2018-06-18T06:39:00.019Z,100243.29
2018-06-18T06:41:29.915Z,100222.06
2018-06-18T06:43:58.607Z,100217.61
2018-06-18T06:46:27.518Z,100211.17
2018-06-18T06:48:56.230Z,100219.69
2018-06-18T06:51:25.155Z,100218.95
2018-06-18T06:53:55.023Z,100225.95
2018-06-18T06:56:23.938Z,100222.94
2018-06-18T06:58:52.934Z,100227.05
2018-06-18T07:01:22.011Z,100236.80
2018-06-18T07:03:50.988Z,100234.95
2018-06-18T07:06:20.172Z,100257.98
2018-06-18T07:08:48.815Z,100249.94
2018-06-18T07:11:17.626Z,100231.78
2018-06-18T07:13:46.697Z,100252.32
2018-06-18T07:16:15.613Z,100269.09
2018-06-18T07:18:44.523Z,100254.98
2018-06-18T07:21:13.451Z,100249.94
2018-06-18T07:23:42.207Z,100235.41
2018-06-18T07:26:11.073Z,100216.73
2018-06-18T07:28:39.623Z,100205.83
2018-06-18T07:31:08.349Z,100198.13
2018-06-18T07:33:37.206Z,100190.12
2018-06-18T07:36:05.805Z,100188.78
2018-06-18T07:38:34.661Z,100178.28
2018-06-18T07:41:03.392Z,100171.01
2018-06-18T07:43:32.496Z,100177.28
2018-06-18T07:46:01.197Z,100183.16
2018-06-18T07:48:29.877Z,100174.45
2018-06-18T07:50:58.778Z,100173.44
2018-06-18T07:53:27.387Z,100160.25
2018-06-18T07:55:56.042Z,100157.83
2018-06-18T07:58:24.806Z,100156.45
2018-06-18T08:00:53.660Z,100174.94
2018-06-18T08:03:22.571Z,100172.42
2018-06-18T08:05:51.525Z,100145.34
2018-06-18T08:09:23.781Z,100157.62
2018-06-18T08:11:52.625Z,100158.97
2018-06-18T08:14:21.270Z,100162.69
2018-06-18T08:16:50.120Z,100160.28
2018-06-18T08:19:18.941Z,100162.41
2018-06-18T08:21:47.637Z,100159.03
2018-06-18T08:24:16.587Z,100167.95
2018-06-18T08:26:45.876Z,100173.02
2018-06-18T08:29:14.648Z,100162.77
2018-06-18T08:31:43.361Z,100170.61
2018-06-18T08:34:12.035Z,100164.80
2018-06-18T08:36:40.882Z,100169.41
2018-06-18T08:39:11.184Z,100164.20
2018-06-18T08:41:40.218Z,100173.34
2018-06-18T08:44:08.933Z,100172.15
2018-06-18T08:46:38.092Z,100171.08
2018-06-18T08:49:08.366Z,100169.64
2018-06-18T08:51:42.178Z,100174.59
2018-06-18T08:54:16.233Z,100162.58
2018-06-18T08:56:50.628Z,100168.02
2018-06-18T08:59:24.776Z,100162.84
2018-06-18T09:01:53.930Z,100171.30
2018-06-18T09:04:27.821Z,100170.59
2018-06-18T09:07:02.364Z,100160.10
2018-06-18T09:09:31.644Z,100165.38
2018-06-18T09:12:00.303Z,100164.77
2018-06-18T09:14:29.000Z,100166.32
2018-06-18T09:16:57.874Z,100162.28
2018-06-18T09:19:26.702Z,100158.30
2018-06-18T09:21:55.601Z,100159.63
2018-06-18T09:24:29.386Z,100158.48
2018-06-18T09:27:15.768Z,100159.28
2018-06-18T09:29:49.750Z,100149.15
2018-06-18T09:32:18.575Z,100150.03
2018-06-18T09:34:47.251Z,100147.72
2018-06-18T09:37:16.108Z,100128.87
2018-06-18T09:39:44.818Z,100130.64
2018-06-18T09:42:13.541Z,100127.09
2018-06-18T09:44:42.221Z,100128.45
2018-06-18T09:47:10.894Z,100130.84
2018-06-18T09:49:45.216Z,100124.89
2018-06-18T09:52:19.053Z,100125.27
2018-06-18T09:54:53.513Z,100130.52
2018-06-18T09:57:28.217Z,100132.80
2018-06-18T10:00:10.044Z,100133.41
2018-06-18T10:02:38.796Z,100134.38
2018-06-18T10:05:07.488Z,100133.02
2018-06-18T10:07:36.500Z,100131.53
2018-06-18T10:10:05.642Z,100133.17
2018-06-18T10:12:34.676Z,100125.72
2018-06-18T10:15:03.473Z,100118.03
2018-06-18T10:17:32.219Z,100120.03
2018-06-18T10:20:00.905Z,100116.47
2018-06-18T10:22:29.692Z,100112.80
2018-06-18T10:24:58.388Z,100105.37
2018-06-18T10:27:27.237Z,100099.70
2018-06-18T10:29:56.106Z,100092.18
2018-06-18T10:32:29.882Z,100096.38
2018-06-18T10:35:03.891Z,100098.55
2018-06-18T10:37:37.980Z,100100.78
2018-06-18T10:40:12.055Z,100100.81
2018-06-18T10:42:46.155Z,100106.17
2018-06-18T10:45:14.900Z,100116.95
2018-06-18T10:47:43.795Z,100104.56
2018-06-18T10:50:12.631Z,100112.69
2018-06-18T10:52:41.388Z,100104.50
2018-06-18T10:55:10.153Z,100110.00
2018-06-18T10:57:39.140Z,100114.80
2018-06-18T11:00:09.570Z,100119.47
2018-06-18T11:02:38.316Z,100117.92
2018-06-18T11:05:07.060Z,100115.06
2018-06-18T11:07:35.784Z,100114.87
2018-06-18T11:10:04.768Z,100106.98
2018-06-18T11:12:33.521Z,100107.48
2018-06-18T11:15:02.204Z,100110.27
2018-06-18T11:17:36.180Z,100113.62
2018-06-18T11:20:10.318Z,100115.08
2018-06-18T11:22:44.398Z,100114.08
2018-06-18T11:25:18.372Z,100119.61
2018-06-18T11:27:47.385Z,100109.78
2018-06-18T11:30:16.265Z,100102.19
2018-06-18T11:32:45.180Z,100104.31
2018-06-18T11:35:14.267Z,100096.25
2018-06-18T11:37:43.105Z,100113.23
2018-06-18T11:40:12.123Z,100108.39
2018-06-18T11:42:40.782Z,100115.72
2018-06-18T11:45:09.731Z,100117.42
2018-06-18T11:47:38.536Z,100120.99
2018-06-18T11:50:07.292Z,100128.51
2018-06-18T11:52:35.943Z,100124.95
2018-06-18T11:55:04.664Z,100128.87
2018-06-18T11:57:33.366Z,100129.13
2018-06-18T12:00:07.279Z,100135.53
2018-06-18T12:02:41.297Z,100137.45
2018-06-18T12:05:15.364Z,100140.88
2018-06-18T12:08:47.183Z,100146.57
2018-06-18T12:11:16.049Z,100146.13
2018-06-18T12:13:44.875Z,100150.22
2018-06-18T12:16:13.651Z,100149.63
2018-06-18T12:18:42.523Z,100158.36
2018-06-18T12:21:11.145Z,100152.77
2018-06-18T12:23:39.779Z,100155.42
2018-06-18T12:26:08.602Z,100154.73
2018-06-18T12:28:37.302Z,100161.84
2018-06-18T12:31:06.077Z,100163.41
2018-06-18T12:33:34.753Z,100155.52
2018-06-18T12:36:03.753Z,100160.00
2018-06-18T12:38:32.713Z,100154.41
2018-06-18T12:41:01.582Z,100163.45
2018-06-18T12:43:33.882Z,100163.61
2018-06-18T12:46:07.936Z,100156.94
2018-06-18T12:48:42.049Z,100163.59
2018-06-18T12:51:16.060Z,100162.50
2018-06-18T12:53:49.969Z,100167.72
2018-06-18T12:56:24.222Z,100166.16
2018-06-18T12:58:53.333Z,100175.53
2018-06-18T13:01:23.485Z,100177.77
2018-06-18T13:03:52.097Z,100169.98
2018-06-18T13:06:21.065Z,100163.48
2018-06-18T13:08:50.264Z,100165.00
2018-06-18T13:11:19.011Z,100163.14
2018-06-18T13:13:47.736Z,100161.98
2018-06-18T13:16:16.365Z,100183.17
2018-06-18T13:18:45.037Z,100167.90
2018-06-18T13:21:13.771Z,100167.89
2018-06-18T13:23:42.560Z,100168.72
2018-06-18T13:26:11.182Z,100169.81
2018-06-18T13:28:39.910Z,100179.22
2018-06-18T13:31:09.114Z,100169.31
2018-06-18T13:33:38.089Z,100180.66
2018-06-18T13:36:06.958Z,100181.98
2018-06-18T13:38:40.864Z,100178.09
2018-06-18T13:41:14.851Z,100171.42
2018-06-18T13:43:48.715Z,100176.55
2018-06-18T13:46:22.687Z,100183.30
2018-06-18T13:48:55.605Z,100185.53
2018-06-18T13:51:25.760Z,100179.33
2018-06-18T13:53:54.754Z,100187.84
2018-06-18T13:56:23.697Z,100195.34
2018-06-18T13:58:52.922Z,100192.13
2018-06-18T14:01:21.666Z,100190.78
2018-06-18T14:03:50.316Z,100202.41
2018-06-18T14:06:19.572Z,100200.83
2018-06-18T14:08:48.278Z,100197.15
2018-06-18T14:11:16.937Z,100191.86
2018-06-18T14:13:45.690Z,100187.94
2018-06-18T14:16:14.645Z,100191.67
2018-06-18T14:18:43.395Z,100194.19
2018-06-18T14:21:12.120Z,100193.30
2018-06-18T14:23:40.791Z,100205.14
2018-06-18T14:26:09.463Z,100194.53
2018-06-18T14:28:38.219Z,100196.69
2018-06-18T14:31:12.379Z,100197.15
2018-06-18T14:33:46.177Z,100197.43
2018-06-18T14:36:20.579Z,100201.46
2018-06-18T14:38:54.291Z,100203.86
2018-06-18T14:41:23.107Z,100195.19
2018-06-18T14:43:51.918Z,100206.53
2018-06-18T14:46:20.912Z,100198.02
2018-06-18T14:48:49.680Z,100198.78
2018-06-18T14:51:18.486Z,100195.89
2018-06-18T14:53:47.198Z,100196.03
2018-06-18T14:56:20.127Z,100194.34
2018-06-18T14:59:02.452Z,100181.84
2018-06-18T15:01:31.155Z,100188.90
2018-06-18T15:03:59.966Z,100193.43
2018-06-18T15:06:28.750Z,100189.51
2018-06-18T15:08:57.859Z,100193.34
2018-06-18T15:11:26.585Z,100187.96
2018-06-18T15:13:55.658Z,100196.54
2018-06-18T15:16:26.360Z,100192.92
2018-06-18T15:18:55.020Z,100186.28
2018-06-18T15:21:23.661Z,100189.24
2018-06-18T15:23:52.623Z,100199.05
2018-06-18T15:26:21.553Z,100200.46
2018-06-18T15:28:50.377Z,100188.37
2018-06-18T15:31:19.077Z,100196.23
2018-06-18T15:33:47.656Z,100189.06
2018-06-18T15:36:16.476Z,100195.97
2018-06-18T15:38:45.233Z,100187.66
2018-06-18T15:41:14.172Z,100194.66
2018-06-18T15:43:43.254Z,100190.86
2018-06-18T15:46:11.891Z,100185.18
2018-06-18T15:48:40.693Z,100188.52
2018-06-18T15:51:09.340Z,100189.14
2018-06-18T15:53:38.369Z,100181.81
2018-06-18T15:56:07.043Z,100192.36
2018-06-18T15:58:35.931Z,100193.67
2018-06-18T16:01:04.694Z,100195.69
2018-06-18T16:03:33.394Z,100190.00
2018-06-18T16:06:02.215Z,100189.02
2018-06-18T16:08:31.032Z,100188.52
2018-06-18T16:10:59.781Z,100192.70
2018-06-18T16:13:28.630Z,100186.85
2018-06-18T16:17:00.651Z,100193.17
2018-06-18T16:19:29.430Z,100185.15
2018-06-18T16:21:58.144Z,100191.80
2018-06-18T16:24:26.836Z,100189.15
2018-06-18T16:26:55.637Z,100188.63
2018-06-18T16:29:24.767Z,100195.83
2018-06-18T16:31:53.572Z,100184.98
2018-06-18T16:34:22.411Z,100188.51
2018-06-18T16:36:51.209Z,100186.66
2018-06-18T16:39:19.947Z,100187.81
2018-06-18T16:41:48.706Z,100179.94
2018-06-18T16:44:17.720Z,100188.02
2018-06-18T16:46:46.324Z,100189.48
2018-06-18T16:49:15.396Z,100197.34
2018-06-18T16:51:44.224Z,100191.53
2018-06-18T16:54:12.901Z,100192.02
2018-06-18T16:56:41.650Z,100184.50
2018-06-18T16:59:10.457Z,100188.50
2018-06-18T17:01:39.230Z,100190.19
2018-06-18T17:04:07.862Z,100184.52
2018-06-18T17:06:36.611Z,100191.36
2018-06-18T17:09:08.337Z,100191.52
2018-06-18T17:11:37.159Z,100181.84
2018-06-18T17:14:06.396Z,100185.31
2018-06-18T17:16:35.227Z,100185.84
2018-06-18T17:19:03.872Z,100179.00
2018-06-18T17:21:32.739Z,100183.00
2018-06-18T17:24:01.757Z,100182.52
2018-06-18T17:26:31.010Z,100181.01
2018-06-18T17:29:00.213Z,100183.52
2018-06-18T17:31:29.038Z,100176.18
2018-06-18T17:33:57.726Z,100170.99
2018-06-18T17:36:26.555Z,100169.48
2018-06-18T17:38:55.472Z,100170.79
2018-06-18T17:41:24.955Z,100175.80
2018-06-18T17:43:54.288Z,100168.95
2018-06-18T17:46:23.320Z,100182.13
2018-06-18T17:48:52.133Z,100175.77
2018-06-18T17:51:21.117Z,100178.94
2018-06-18T17:53:50.198Z,100186.78
2018-06-18T17:56:19.409Z,100185.14
2018-06-18T17:58:48.158Z,100184.14
2018-06-18T18:01:17.357Z,100183.98
2018-06-18T18:03:46.146Z,100184.01
2018-06-18T18:06:15.031Z,100184.50
2018-06-18T18:08:43.970Z,100184.31
2018-06-18T18:11:12.821Z,100184.66
2018-06-18T18:13:41.886Z,100180.30
2018-06-18T18:16:11.217Z,100185.14
2018-06-18T18:18:40.455Z,100188.52
2018-06-18T18:21:09.458Z,100182.16
2018-06-18T18:23:38.231Z,100185.33
2018-06-18T18:26:07.082Z,100179.15
2018-06-18T18:28:36.129Z,100178.31
2018-06-18T18:31:05.286Z,100181.34
2018-06-18T18:33:34.301Z,100176.99
2018-06-18T18:36:03.675Z,100181.50
2018-06-18T18:38:32.595Z,100180.48
2018-06-18T18:41:01.566Z,100175.64
2018-06-18T18:43:30.236Z,100182.33
2018-06-18T18:45:59.282Z,100180.84
2018-06-18T18:48:28.227Z,100180.01
2018-06-18T18:50:56.956Z,100179.48
2018-06-18T18:53:25.809Z,100185.48
2018-06-18T18:56:06.967Z,100184.34
2018-06-18T18:59:46.823Z,100184.13
2018-06-18T19:02:15.976Z,100187.97
2018-06-18T19:04:57.106Z,100187.66
2018-06-18T19:07:35.398Z,100184.66
2018-06-18T19:10:24.013Z,100188.49
2018-06-18T19:25:03.630Z,100184.02
2018-06-18T19:27:32.382Z,100189.35
2018-06-18T19:30:01.155Z,100191.52
2018-06-18T19:32:30.048Z,100188.36
2018-06-18T19:34:58.757Z,100186.84
2018-06-18T19:37:29.982Z,100187.23
2018-06-18T19:40:00.889Z,100184.67
2018-06-18T19:42:32.065Z,100185.50
2018-06-18T19:45:00.827Z,100184.31
2018-06-18T19:47:36.484Z,100192.63
2018-06-18T19:50:05.739Z,100186.45
2018-06-18T19:52:35.310Z,100185.91
2018-06-18T19:55:09.836Z,100184.38
2018-06-18T19:57:38.484Z,100186.89
2018-06-18T20:00:07.165Z,100187.19
2018-06-18T20:02:36.414Z,100186.98
2018-06-18T20:05:11.098Z,100183.63
2018-06-18T20:07:44.950Z,100186.78
2018-06-18T20:10:14.866Z,100184.41
2018-06-18T20:12:44.630Z,100183.22
2018-06-18T20:15:15.593Z,100181.03
2018-06-18T20:17:45.883Z,100176.98
2018-06-18T20:20:15.557Z,100177.77
2018-06-18T20:22:45.584Z,100177.54
2018-06-18T20:25:15.226Z,100176.55
2018-06-18T20:27:43.974Z,100172.06
2018-06-18T20:30:13.131Z,100165.01
2018-06-18T20:32:41.997Z,100171.16
2018-06-18T20:35:30.042Z,100175.77
2018-06-18T20:37:58.676Z,100171.55
2018-06-18T20:40:27.664Z,100165.53
2018-06-18T20:42:56.694Z,100161.81
2018-06-18T20:45:25.359Z,100161.94
2018-06-18T20:47:54.066Z,100163.41
2018-06-18T20:50:23.718Z,100158.44
2018-06-18T20:52:52.793Z,100158.85
2018-06-18T20:55:22.062Z,100163.53
2018-06-18T20:57:55.561Z,100161.52
2018-06-18T21:00:24.152Z,100163.17
2018-06-18T21:02:53.067Z,100158.97
2018-06-18T21:05:22.317Z,100149.92
2018-06-18T21:07:51.649Z,100149.72
2018-06-18T21:10:21.152Z,100152.22
2018-06-18T21:12:51.068Z,100147.65
2018-06-18T21:15:20.451Z,100142.59
2018-06-18T21:17:49.504Z,100144.00
2018-06-18T21:20:18.438Z,100142.99
2018-06-18T21:22:47.096Z,100134.31
2018-06-18T21:25:15.778Z,100142.27
2018-06-18T21:27:45.090Z,100137.23
2018-06-18T21:30:13.790Z,100133.88
2018-06-18T21:32:47.383Z,100128.91
2018-06-18T21:35:23.498Z,100123.56
2018-06-18T21:38:02.774Z,100123.15
2018-06-18T21:40:36.343Z,100121.19
2018-06-18T21:43:05.111Z,100126.85
2018-06-18T21:45:33.722Z,100121.30
2018-06-18T21:48:21.244Z,100113.61
2018-06-18T21:50:52.294Z,100114.09
2018-06-18T21:53:25.875Z,100111.13
2018-06-18T21:55:56.981Z,100106.23
2018-06-18T21:58:26.553Z,100093.56
2018-06-18T22:01:00.748Z,100088.86
2018-06-18T22:03:32.210Z,100097.18
2018-06-18T22:06:12.988Z,100086.86
2018-06-18T22:08:42.660Z,100081.80
2018-06-18T22:11:14.067Z,100081.35
2018-06-18T22:13:46.809Z,100087.82
2018-06-18T22:16:20.196Z,100080.16
2018-06-18T22:18:52.342Z,100074.95
2018-06-18T22:21:24.523Z,100072.93
2018-06-18T22:24:00.165Z,100077.72
2018-06-18T22:26:33.131Z,100067.37
2018-06-18T22:29:21.208Z,100068.66
2018-06-18T22:31:52.890Z,100063.59
2018-06-18T22:34:23.972Z,100058.42
2018-06-18T22:37:07.220Z,100065.41
2018-06-18T22:39:41.750Z,100067.93
2018-06-18T22:42:12.252Z,100060.98
2018-06-18T22:44:54.917Z,100058.98
2018-06-18T22:47:25.011Z,100053.31
2018-06-18T22:49:55.220Z,100050.70
2018-06-18T22:52:35.404Z,100047.16
2018-06-18T22:55:13.227Z,100039.93
2018-06-18T22:57:42.561Z,100047.79
2018-06-18T23:03:57.476Z,100038.22
2018-06-18T23:06:29.615Z,100037.52
2018-06-18T23:09:01.616Z,100027.17
2018-06-18T23:11:31.845Z,100026.86
2018-06-18T23:14:03.675Z,100023.64
2018-06-18T23:16:34.948Z,100021.27
2018-06-18T23:19:05.568Z,100015.67
2018-06-18T23:21:35.880Z,100013.55
2018-06-18T23:24:07.819Z,100018.02
2018-06-18T23:26:41.279Z,100011.34
2018-06-18T23:29:16.687Z,100010.12
2018-06-18T23:31:47.502Z,100008.16
2018-06-18T23:34:17.742Z,100008.44
2018-06-18T23:36:52.508Z,100000.70
2018-06-18T23:39:25.885Z,99992.36
2018-06-18T23:42:01.797Z,99990.58
2018-06-18T23:44:36.903Z,99981.33
2018-06-18T23:47:13.169Z,99977.69
2018-06-18T23:55:46.742Z,99969.37
2018-06-18T23:58:36.510Z,99966.34
